sensor_id;sensor_type;location;lat;lon;timestamp;temperature;humidity
21090;DHT22;10703;51.020;6.128;2023-06-19T00:02:04;20.10;99.90
21090;DHT22;10703;51.020;6.128;2023-06-19T00:04:30;20.10;99.90
21090;DHT22;10703;51.020;6.128;2023-06-19T00:06:59;20.20;99.90
21090;DHT22;10703;51.020;6.128;2023-06-19T00:09:26;20.00;99.90
21090;DHT22;10703;51.020;6.128;2023-06-19T00:11:53;19.80;99.90
21090;DHT22;10703;51.020;6.128;2023-06-19T00:14:19;19.80;99.90
21090;DHT22;10703;51.020;6.128;2023-06-19T00:16:46;19.80;99.90
21090;DHT22;10703;51.020;6.128;2023-06-19T00:19:13;19.80;99.90
21090;DHT22;10703;51.020;6.128;2023-06-19T00:21:39;19.90;99.90
21090;DHT22;10703;51.020;6.128;2023-06-19T00:24:06;19.70;99.90
21090;DHT22;10703;51.020;6.128;2023-06-19T00:26:33;19.60;99.90
21090;DHT22;10703;51.020;6.128;2023-06-19T00:28:59;19.70;99.90
21090;DHT22;10703;51.020;6.128;2023-06-19T00:31:26;19.60;99.90
21090;DHT22;10703;51.020;6.128;2023-06-19T00:33:54;19.60;99.90
21090;DHT22;10703;51.020;6.128;2023-06-19T00:36:21;19.60;99.90
21090;DHT22;10703;51.020;6.128;2023-06-19T00:38:49;19.70;99.90
21090;DHT22;10703;51.020;6.128;2023-06-19T00:41:16;19.80;99.90
21090;DHT22;10703;51.020;6.128;2023-06-19T00:43:43;19.70;99.90
21090;DHT22;10703;51.020;6.128;2023-06-19T00:46:11;19.60;99.90
21090;DHT22;10703;51.020;6.128;2023-06-19T00:48:38;19.60;99.90
21090;DHT22;10703;51.020;6.128;2023-06-19T00:51:05;19.70;99.90
21090;DHT22;10703;51.020;6.128;2023-06-19T00:53:33;19.90;99.90
21090;DHT22;10703;51.020;6.128;2023-06-19T00:56:01;19.90;99.90
21090;DHT22;10703;51.020;6.128;2023-06-19T00:58:29;20.10;99.90
21090;DHT22;10703;51.020;6.128;2023-06-19T01:00:56;20.40;99.90
21090;DHT22;10703;51.020;6.128;2023-06-19T01:03:35;20.30;99.90
21090;DHT22;10703;51.020;6.128;2023-06-19T01:06:05;20.20;99.90
21090;DHT22;10703;51.020;6.128;2023-06-19T01:09:08;20.20;99.90
21090;DHT22;10703;51.020;6.128;2023-06-19T01:11:46;20.70;99.90
21090;DHT22;10703;51.020;6.128;2023-06-19T01:14:18;20.60;99.90
21090;DHT22;10703;51.020;6.128;2023-06-19T01:16:46;20.60;99.90
21090;DHT22;10703;51.020;6.128;2023-06-19T01:19:18;20.60;99.90
21090;DHT22;10703;51.020;6.128;2023-06-19T01:21:47;20.70;99.90
21090;DHT22;10703;51.020;6.128;2023-06-19T01:24:14;21.00;99.90
21090;DHT22;10703;51.020;6.128;2023-06-19T01:26:41;21.30;99.90
21090;DHT22;10703;51.020;6.128;2023-06-19T01:29:08;21.20;99.90
21090;DHT22;10703;51.020;6.128;2023-06-19T01:31:46;21.30;99.90
21090;DHT22;10703;51.020;6.128;2023-06-19T01:34:17;21.40;99.90
21090;DHT22;10703;51.020;6.128;2023-06-19T01:36:48;21.50;99.90
21090;DHT22;10703;51.020;6.128;2023-06-19T01:39:18;21.50;99.90
21090;DHT22;10703;51.020;6.128;2023-06-19T01:41:45;21.60;99.90
21090;DHT22;10703;51.020;6.128;2023-06-19T01:44:13;21.50;99.90
21090;DHT22;10703;51.020;6.128;2023-06-19T01:46:40;21.60;99.90
21090;DHT22;10703;51.020;6.128;2023-06-19T01:49:07;21.40;99.90
21090;DHT22;10703;51.020;6.128;2023-06-19T01:51:35;21.40;99.90
21090;DHT22;10703;51.020;6.128;2023-06-19T01:54:02;21.50;99.90
21090;DHT22;10703;51.020;6.128;2023-06-19T01:56:30;21.30;99.90
21090;DHT22;10703;51.020;6.128;2023-06-19T01:58:57;21.40;99.90
21090;DHT22;10703;51.020;6.128;2023-06-19T02:01:24;21.30;99.90
21090;DHT22;10703;51.020;6.128;2023-06-19T02:03:50;21.40;99.90
21090;DHT22;10703;51.020;6.128;2023-06-19T02:06:17;21.20;99.90
21090;DHT22;10703;51.020;6.128;2023-06-19T02:08:44;21.10;99.90
21090;DHT22;10703;51.020;6.128;2023-06-19T02:11:11;21.00;99.90
21090;DHT22;10703;51.020;6.128;2023-06-19T02:13:37;20.90;99.90
21090;DHT22;10703;51.020;6.128;2023-06-19T02:16:06;20.70;99.90
21090;DHT22;10703;51.020;6.128;2023-06-19T02:18:32;20.80;99.90
21090;DHT22;10703;51.020;6.128;2023-06-19T02:20:59;20.90;99.90
21090;DHT22;10703;51.020;6.128;2023-06-19T02:23:26;20.80;99.90
21090;DHT22;10703;51.020;6.128;2023-06-19T02:25:52;20.90;99.90
21090;DHT22;10703;51.020;6.128;2023-06-19T02:28:19;20.50;99.90
21090;DHT22;10703;51.020;6.128;2023-06-19T02:30:46;20.50;99.90
21090;DHT22;10703;51.020;6.128;2023-06-19T02:33:13;20.30;99.90
21090;DHT22;10703;51.020;6.128;2023-06-19T02:35:39;20.20;99.90
21090;DHT22;10703;51.020;6.128;2023-06-19T02:38:08;20.20;99.90
21090;DHT22;10703;51.020;6.128;2023-06-19T02:40:34;20.10;99.90
21090;DHT22;10703;51.020;6.128;2023-06-19T02:43:01;20.00;99.90
21090;DHT22;10703;51.020;6.128;2023-06-19T02:45:28;20.00;99.90
21090;DHT22;10703;51.020;6.128;2023-06-19T02:47:54;19.90;99.90
21090;DHT22;10703;51.020;6.128;2023-06-19T02:50:21;19.90;99.90
21090;DHT22;10703;51.020;6.128;2023-06-19T02:52:48;19.90;99.90
21090;DHT22;10703;51.020;6.128;2023-06-19T02:55:15;19.80;99.90
21090;DHT22;10703;51.020;6.128;2023-06-19T02:57:41;19.70;99.90
21090;DHT22;10703;51.020;6.128;2023-06-19T03:00:08;19.70;99.90
21090;DHT22;10703;51.020;6.128;2023-06-19T03:02:36;19.60;99.90
21090;DHT22;10703;51.020;6.128;2023-06-19T03:05:03;19.60;99.90
21090;DHT22;10703;51.020;6.128;2023-06-19T03:07:29;19.50;99.90
21090;DHT22;10703;51.020;6.128;2023-06-19T03:09:56;19.50;99.90
21090;DHT22;10703;51.020;6.128;2023-06-19T03:12:23;19.60;99.90
21090;DHT22;10703;51.020;6.128;2023-06-19T03:14:49;19.40;99.90
21090;DHT22;10703;51.020;6.128;2023-06-19T03:17:16;19.40;99.90
21090;DHT22;10703;51.020;6.128;2023-06-19T03:19:42;19.40;99.90
21090;DHT22;10703;51.020;6.128;2023-06-19T03:22:09;19.40;99.90
21090;DHT22;10703;51.020;6.128;2023-06-19T03:24:36;19.30;99.90
21090;DHT22;10703;51.020;6.128;2023-06-19T03:27:03;19.30;99.90
21090;DHT22;10703;51.020;6.128;2023-06-19T03:29:29;19.30;99.90
21090;DHT22;10703;51.020;6.128;2023-06-19T03:31:56;19.30;99.90
21090;DHT22;10703;51.020;6.128;2023-06-19T03:34:23;19.30;99.90
21090;DHT22;10703;51.020;6.128;2023-06-19T03:36:49;19.10;99.90
21090;DHT22;10703;51.020;6.128;2023-06-19T03:39:16;18.90;99.90
21090;DHT22;10703;51.020;6.128;2023-06-19T03:41:42;19.10;99.90
21090;DHT22;10703;51.020;6.128;2023-06-19T03:44:09;18.90;99.90
21090;DHT22;10703;51.020;6.128;2023-06-19T03:46:35;18.90;99.90
21090;DHT22;10703;51.020;6.128;2023-06-19T03:49:02;18.90;99.90
21090;DHT22;10703;51.020;6.128;2023-06-19T03:51:32;18.90;99.90
21090;DHT22;10703;51.020;6.128;2023-06-19T03:53:59;18.90;99.90
21090;DHT22;10703;51.020;6.128;2023-06-19T03:56:25;18.90;99.90
21090;DHT22;10703;51.020;6.128;2023-06-19T03:58:52;19.00;99.90
21090;DHT22;10703;51.020;6.128;2023-06-19T04:01:18;18.90;99.90
21090;DHT22;10703;51.020;6.128;2023-06-19T04:03:45;19.00;99.90
21090;DHT22;10703;51.020;6.128;2023-06-19T04:06:12;19.00;99.90
21090;DHT22;10703;51.020;6.128;2023-06-19T04:08:38;19.10;99.90
21090;DHT22;10703;51.020;6.128;2023-06-19T04:11:05;19.10;99.90
21090;DHT22;10703;51.020;6.128;2023-06-19T04:13:31;19.10;99.90
21090;DHT22;10703;51.020;6.128;2023-06-19T04:15:58;19.30;99.90
21090;DHT22;10703;51.020;6.128;2023-06-19T04:18:25;19.30;99.90
21090;DHT22;10703;51.020;6.128;2023-06-19T04:20:51;19.30;99.90
21090;DHT22;10703;51.020;6.128;2023-06-19T04:23:18;19.30;99.90
21090;DHT22;10703;51.020;6.128;2023-06-19T04:25:44;19.30;99.90
21090;DHT22;10703;51.020;6.128;2023-06-19T04:28:11;19.40;99.90
21090;DHT22;10703;51.020;6.128;2023-06-19T04:30:38;19.40;99.90
21090;DHT22;10703;51.020;6.128;2023-06-19T04:33:05;19.50;99.90
21090;DHT22;10703;51.020;6.128;2023-06-19T04:35:34;19.60;99.90
21090;DHT22;10703;51.020;6.128;2023-06-19T04:38:07;19.70;99.90
21090;DHT22;10703;51.020;6.128;2023-06-19T04:40:33;19.80;99.90
21090;DHT22;10703;51.020;6.128;2023-06-19T04:43:01;19.90;99.90
21090;DHT22;10703;51.020;6.128;2023-06-19T04:45:28;19.80;99.90
21090;DHT22;10703;51.020;6.128;2023-06-19T04:47:55;19.80;99.90
21090;DHT22;10703;51.020;6.128;2023-06-19T04:50:22;20.00;99.90
21090;DHT22;10703;51.020;6.128;2023-06-19T04:52:49;19.80;99.90
21090;DHT22;10703;51.020;6.128;2023-06-19T04:55:17;19.70;99.90
21090;DHT22;10703;51.020;6.128;2023-06-19T04:57:44;19.70;99.90
21090;DHT22;10703;51.020;6.128;2023-06-19T05:00:11;19.60;99.90
21090;DHT22;10703;51.020;6.128;2023-06-19T05:02:37;19.70;99.90
21090;DHT22;10703;51.020;6.128;2023-06-19T05:05:05;19.70;99.90
21090;DHT22;10703;51.020;6.128;2023-06-19T05:07:32;19.70;99.90
21090;DHT22;10703;51.020;6.128;2023-06-19T05:09:59;19.80;99.90
21090;DHT22;10703;51.020;6.128;2023-06-19T05:12:25;20.10;99.90
21090;DHT22;10703;51.020;6.128;2023-06-19T05:14:52;20.00;99.90
21090;DHT22;10703;51.020;6.128;2023-06-19T05:17:19;20.30;99.90
21090;DHT22;10703;51.020;6.128;2023-06-19T05:19:46;20.30;99.90
21090;DHT22;10703;51.020;6.128;2023-06-19T05:22:12;20.70;99.90
21090;DHT22;10703;51.020;6.128;2023-06-19T05:24:39;20.60;99.90
21090;DHT22;10703;51.020;6.128;2023-06-19T05:27:06;20.40;99.90
21090;DHT22;10703;51.020;6.128;2023-06-19T05:29:33;20.40;99.90
21090;DHT22;10703;51.020;6.128;2023-06-19T05:32:00;20.40;99.90
21090;DHT22;10703;51.020;6.128;2023-06-19T05:34:26;20.50;99.90
21090;DHT22;10703;51.020;6.128;2023-06-19T05:36:53;20.70;99.90
21090;DHT22;10703;51.020;6.128;2023-06-19T05:39:19;20.60;99.90
21090;DHT22;10703;51.020;6.128;2023-06-19T05:41:46;20.40;99.90
21090;DHT22;10703;51.020;6.128;2023-06-19T05:44:13;20.60;99.90
21090;DHT22;10703;51.020;6.128;2023-06-19T05:46:42;20.60;99.90
21090;DHT22;10703;51.020;6.128;2023-06-19T05:49:09;20.50;99.90
21090;DHT22;10703;51.020;6.128;2023-06-19T05:51:36;20.30;99.90
21090;DHT22;10703;51.020;6.128;2023-06-19T05:54:03;20.20;99.90
21090;DHT22;10703;51.020;6.128;2023-06-19T05:56:31;20.30;99.90
21090;DHT22;10703;51.020;6.128;2023-06-19T05:59:00;20.30;99.90
21090;DHT22;10703;51.020;6.128;2023-06-19T06:01:28;20.30;99.90
21090;DHT22;10703;51.020;6.128;2023-06-19T06:03:55;20.20;99.90
21090;DHT22;10703;51.020;6.128;2023-06-19T06:06:25;20.50;99.90
21090;DHT22;10703;51.020;6.128;2023-06-19T06:08:52;20.30;99.90
21090;DHT22;10703;51.020;6.128;2023-06-19T06:11:19;20.00;99.90
21090;DHT22;10703;51.020;6.128;2023-06-19T06:13:46;19.50;99.90
21090;DHT22;10703;51.020;6.128;2023-06-19T06:16:13;19.30;99.90
21090;DHT22;10703;51.020;6.128;2023-06-19T06:18:41;19.00;99.90
21090;DHT22;10703;51.020;6.128;2023-06-19T06:21:07;18.90;99.90
21090;DHT22;10703;51.020;6.128;2023-06-19T06:23:34;18.80;99.90
21090;DHT22;10703;51.020;6.128;2023-06-19T06:26:01;18.90;99.90
21090;DHT22;10703;51.020;6.128;2023-06-19T06:28:29;18.90;99.90
21090;DHT22;10703;51.020;6.128;2023-06-19T06:30:58;18.90;99.90
21090;DHT22;10703;51.020;6.128;2023-06-19T06:33:24;19.00;99.90
21090;DHT22;10703;51.020;6.128;2023-06-19T06:35:51;19.00;99.90
21090;DHT22;10703;51.020;6.128;2023-06-19T06:38:18;19.20;99.90
21090;DHT22;10703;51.020;6.128;2023-06-19T06:40:44;19.30;99.90
21090;DHT22;10703;51.020;6.128;2023-06-19T06:43:11;19.50;99.90
21090;DHT22;10703;51.020;6.128;2023-06-19T06:45:38;19.60;99.90
21090;DHT22;10703;51.020;6.128;2023-06-19T06:48:05;19.70;99.90
21090;DHT22;10703;51.020;6.128;2023-06-19T06:50:33;19.70;99.90
21090;DHT22;10703;51.020;6.128;2023-06-19T06:53:00;19.80;99.90
21090;DHT22;10703;51.020;6.128;2023-06-19T06:55:27;19.90;99.90
21090;DHT22;10703;51.020;6.128;2023-06-19T06:57:54;20.10;99.90
21090;DHT22;10703;51.020;6.128;2023-06-19T07:00:20;20.10;99.90
21090;DHT22;10703;51.020;6.128;2023-06-19T07:02:48;20.40;99.90
21090;DHT22;10703;51.020;6.128;2023-06-19T07:05:17;20.50;99.90
21090;DHT22;10703;51.020;6.128;2023-06-19T07:07:43;20.70;99.90
21090;DHT22;10703;51.020;6.128;2023-06-19T07:10:10;20.90;99.90
21090;DHT22;10703;51.020;6.128;2023-06-19T07:12:44;21.00;99.90
21090;DHT22;10703;51.020;6.128;2023-06-19T07:15:11;21.20;99.90
21090;DHT22;10703;51.020;6.128;2023-06-19T07:17:38;21.40;99.90
21090;DHT22;10703;51.020;6.128;2023-06-19T07:20:05;21.50;99.90
21090;DHT22;10703;51.020;6.128;2023-06-19T07:22:33;21.50;99.90
21090;DHT22;10703;51.020;6.128;2023-06-19T07:24:59;21.40;99.90
21090;DHT22;10703;51.020;6.128;2023-06-19T07:27:26;21.60;99.90
21090;DHT22;10703;51.020;6.128;2023-06-19T07:29:54;21.80;99.90
21090;DHT22;10703;51.020;6.128;2023-06-19T07:32:20;21.70;99.90
21090;DHT22;10703;51.020;6.128;2023-06-19T07:34:47;22.10;99.90
21090;DHT22;10703;51.020;6.128;2023-06-19T07:37:14;22.40;99.90
21090;DHT22;10703;51.020;6.128;2023-06-19T07:39:45;22.40;99.90
21090;DHT22;10703;51.020;6.128;2023-06-19T07:42:13;22.70;99.90
21090;DHT22;10703;51.020;6.128;2023-06-19T07:44:40;22.70;99.90
21090;DHT22;10703;51.020;6.128;2023-06-19T07:47:07;22.70;99.90
21090;DHT22;10703;51.020;6.128;2023-06-19T07:49:35;22.60;99.90
21090;DHT22;10703;51.020;6.128;2023-06-19T07:52:03;22.80;99.90
21090;DHT22;10703;51.020;6.128;2023-06-19T07:54:30;22.40;99.90
21090;DHT22;10703;51.020;6.128;2023-06-19T07:56:57;22.40;99.90
21090;DHT22;10703;51.020;6.128;2023-06-19T07:59:23;22.50;99.90
21090;DHT22;10703;51.020;6.128;2023-06-19T08:01:50;22.50;99.90
21090;DHT22;10703;51.020;6.128;2023-06-19T08:04:16;22.50;99.90
21090;DHT22;10703;51.020;6.128;2023-06-19T08:06:43;22.70;99.90
21090;DHT22;10703;51.020;6.128;2023-06-19T08:09:10;22.80;99.90
21090;DHT22;10703;51.020;6.128;2023-06-19T08:11:36;22.70;99.90
21090;DHT22;10703;51.020;6.128;2023-06-19T08:14:03;22.30;99.90
21090;DHT22;10703;51.020;6.128;2023-06-19T08:16:30;22.70;99.90
21090;DHT22;10703;51.020;6.128;2023-06-19T08:18:57;22.20;99.90
21090;DHT22;10703;51.020;6.128;2023-06-19T08:21:23;22.40;99.90
21090;DHT22;10703;51.020;6.128;2023-06-19T08:23:50;22.50;99.90
21090;DHT22;10703;51.020;6.128;2023-06-19T08:26:17;22.80;99.90
21090;DHT22;10703;51.020;6.128;2023-06-19T08:28:44;23.30;99.90
21090;DHT22;10703;51.020;6.128;2023-06-19T08:31:11;23.50;99.90
21090;DHT22;10703;51.020;6.128;2023-06-19T08:33:37;23.20;99.90
21090;DHT22;10703;51.020;6.128;2023-06-19T08:36:04;23.30;99.90
21090;DHT22;10703;51.020;6.128;2023-06-19T08:38:31;23.40;99.90
21090;DHT22;10703;51.020;6.128;2023-06-19T08:40:58;23.40;99.90
21090;DHT22;10703;51.020;6.128;2023-06-19T08:43:24;23.30;99.90
21090;DHT22;10703;51.020;6.128;2023-06-19T08:46:06;23.60;99.90
21090;DHT22;10703;51.020;6.128;2023-06-19T08:48:35;24.20;99.90
21090;DHT22;10703;51.020;6.128;2023-06-19T08:51:05;24.70;99.90
21090;DHT22;10703;51.020;6.128;2023-06-19T08:53:43;25.20;99.90
21090;DHT22;10703;51.020;6.128;2023-06-19T08:56:10;25.10;99.90
21090;DHT22;10703;51.020;6.128;2023-06-19T08:58:37;24.90;99.90
21090;DHT22;10703;51.020;6.128;2023-06-19T09:01:04;25.20;99.90
21090;DHT22;10703;51.020;6.128;2023-06-19T09:03:31;24.50;99.90
21090;DHT22;10703;51.020;6.128;2023-06-19T09:06:08;24.50;99.90
21090;DHT22;10703;51.020;6.128;2023-06-19T09:08:35;24.50;99.90
21090;DHT22;10703;51.020;6.128;2023-06-19T09:11:04;25.10;99.90
21090;DHT22;10703;51.020;6.128;2023-06-19T09:13:32;25.40;99.90
21090;DHT22;10703;51.020;6.128;2023-06-19T09:16:02;26.00;99.90
21090;DHT22;10703;51.020;6.128;2023-06-19T09:18:31;25.80;99.90
21090;DHT22;10703;51.020;6.128;2023-06-19T09:20:59;25.70;99.90
21090;DHT22;10703;51.020;6.128;2023-06-19T09:23:25;26.00;99.90
21090;DHT22;10703;51.020;6.128;2023-06-19T09:25:53;26.40;99.90
21090;DHT22;10703;51.020;6.128;2023-06-19T09:28:23;26.00;99.90
21090;DHT22;10703;51.020;6.128;2023-06-19T09:30:55;25.90;99.90
21090;DHT22;10703;51.020;6.128;2023-06-19T09:33:29;26.30;99.90
21090;DHT22;10703;51.020;6.128;2023-06-19T09:35:58;26.30;99.90
21090;DHT22;10703;51.020;6.128;2023-06-19T09:38:28;26.40;99.90
21090;DHT22;10703;51.020;6.128;2023-06-19T09:40:57;26.50;99.90
21090;DHT22;10703;51.020;6.128;2023-06-19T09:43:44;26.50;99.90
21090;DHT22;10703;51.020;6.128;2023-06-19T09:46:14;26.30;99.90
21090;DHT22;10703;51.020;6.128;2023-06-19T09:48:43;26.20;99.90
21090;DHT22;10703;51.020;6.128;2023-06-19T09:51:27;26.00;99.90
21090;DHT22;10703;51.020;6.128;2023-06-19T09:53:57;26.10;99.90
21090;DHT22;10703;51.020;6.128;2023-06-19T09:56:26;26.60;99.90
21090;DHT22;10703;51.020;6.128;2023-06-19T09:58:56;26.70;99.90
21090;DHT22;10703;51.020;6.128;2023-06-19T10:01:28;26.80;99.00
21090;DHT22;10703;51.020;6.128;2023-06-19T10:04:06;26.80;99.90
21090;DHT22;10703;51.020;6.128;2023-06-19T10:06:46;26.80;97.90
21090;DHT22;10703;51.020;6.128;2023-06-19T10:09:15;27.10;99.50
21090;DHT22;10703;51.020;6.128;2023-06-19T10:11:49;28.00;98.10
21090;DHT22;10703;51.020;6.128;2023-06-19T10:14:20;27.40;98.60
21090;DHT22;10703;51.020;6.128;2023-06-19T10:16:47;27.80;98.30
21090;DHT22;10703;51.020;6.128;2023-06-19T10:19:21;28.00;97.90
21090;DHT22;10703;51.020;6.128;2023-06-19T10:21:49;28.20;97.80
21090;DHT22;10703;51.020;6.128;2023-06-19T10:24:17;28.00;95.80
21090;DHT22;10703;51.020;6.128;2023-06-19T10:27:00;28.40;96.20
21090;DHT22;10703;51.020;6.128;2023-06-19T10:29:41;27.60;96.90
21090;DHT22;10703;51.020;6.128;2023-06-19T10:32:18;27.70;97.70
21090;DHT22;10703;51.020;6.128;2023-06-19T10:34:47;27.60;95.90
21090;DHT22;10703;51.020;6.128;2023-06-19T10:37:15;27.30;96.20
21090;DHT22;10703;51.020;6.128;2023-06-19T10:39:43;27.80;95.40
21090;DHT22;10703;51.020;6.128;2023-06-19T10:42:10;28.30;96.10
21090;DHT22;10703;51.020;6.128;2023-06-19T10:44:37;28.20;95.80
21090;DHT22;10703;51.020;6.128;2023-06-19T10:47:05;28.30;94.90
21090;DHT22;10703;51.020;6.128;2023-06-19T10:49:34;28.30;96.00
21090;DHT22;10703;51.020;6.128;2023-06-19T10:52:01;28.90;95.50
21090;DHT22;10703;51.020;6.128;2023-06-19T10:54:28;28.50;95.30
21090;DHT22;10703;51.020;6.128;2023-06-19T10:56:56;28.80;94.90
21090;DHT22;10703;51.020;6.128;2023-06-19T10:59:23;29.80;95.10
21090;DHT22;10703;51.020;6.128;2023-06-19T11:01:52;29.60;93.70
21090;DHT22;10703;51.020;6.128;2023-06-19T11:04:19;29.10;94.00
21090;DHT22;10703;51.020;6.128;2023-06-19T11:06:45;29.30;93.30
21090;DHT22;10703;51.020;6.128;2023-06-19T11:09:13;29.00;93.20
21090;DHT22;10703;51.020;6.128;2023-06-19T11:11:42;28.00;93.60
21090;DHT22;10703;51.020;6.128;2023-06-19T11:14:11;28.00;94.30
21090;DHT22;10703;51.020;6.128;2023-06-19T11:16:43;28.10;94.40
21090;DHT22;10703;51.020;6.128;2023-06-19T11:19:18;28.40;94.10
21090;DHT22;10703;51.020;6.128;2023-06-19T11:21:47;28.60;94.30
21090;DHT22;10703;51.020;6.128;2023-06-19T11:24:15;28.50;94.60
21090;DHT22;10703;51.020;6.128;2023-06-19T11:26:44;28.20;93.60
21090;DHT22;10703;51.020;6.128;2023-06-19T11:29:35;28.90;93.40
21090;DHT22;10703;51.020;6.128;2023-06-19T11:32:08;29.20;91.50
21090;DHT22;10703;51.020;6.128;2023-06-19T11:34:37;29.70;94.00
21090;DHT22;10703;51.020;6.128;2023-06-19T11:39:40;31.00;92.00
21090;DHT22;10703;51.020;6.128;2023-06-19T11:42:08;31.00;90.90
21090;DHT22;10703;51.020;6.128;2023-06-19T11:44:34;31.40;90.30
21090;DHT22;10703;51.020;6.128;2023-06-19T11:47:05;30.90;91.10
21090;DHT22;10703;51.020;6.128;2023-06-19T11:49:35;30.70;88.30
21090;DHT22;10703;51.020;6.128;2023-06-19T11:52:02;30.10;89.40
21090;DHT22;10703;51.020;6.128;2023-06-19T11:54:28;29.90;90.00
21090;DHT22;10703;51.020;6.128;2023-06-19T11:56:55;29.90;91.50
21090;DHT22;10703;51.020;6.128;2023-06-19T11:59:23;30.00;90.90
21090;DHT22;10703;51.020;6.128;2023-06-19T12:01:50;29.90;89.40
21090;DHT22;10703;51.020;6.128;2023-06-19T12:04:16;30.00;91.50
21090;DHT22;10703;51.020;6.128;2023-06-19T12:06:43;30.10;90.20
21090;DHT22;10703;51.020;6.128;2023-06-19T12:09:10;30.20;90.80
21090;DHT22;10703;51.020;6.128;2023-06-19T12:11:38;30.00;91.50
21090;DHT22;10703;51.020;6.128;2023-06-19T12:14:04;29.20;92.80
21090;DHT22;10703;51.020;6.128;2023-06-19T12:16:31;29.40;91.70
21090;DHT22;10703;51.020;6.128;2023-06-19T12:18:58;29.30;93.80
21090;DHT22;10703;51.020;6.128;2023-06-19T12:21:25;29.60;91.30
21090;DHT22;10703;51.020;6.128;2023-06-19T12:24:05;30.00;91.50
21090;DHT22;10703;51.020;6.128;2023-06-19T12:26:36;30.70;91.10
21090;DHT22;10703;51.020;6.128;2023-06-19T12:29:04;31.10;89.00
21090;DHT22;10703;51.020;6.128;2023-06-19T12:31:31;31.50;88.90
21090;DHT22;10703;51.020;6.128;2023-06-19T12:33:58;32.60;88.30
21090;DHT22;10703;51.020;6.128;2023-06-19T12:36:26;33.00;86.20
21090;DHT22;10703;51.020;6.128;2023-06-19T12:38:53;32.10;85.40
21090;DHT22;10703;51.020;6.128;2023-06-19T12:41:20;32.40;84.70
21090;DHT22;10703;51.020;6.128;2023-06-19T12:43:48;32.90;85.40
21090;DHT22;10703;51.020;6.128;2023-06-19T12:46:15;32.50;83.90
21090;DHT22;10703;51.020;6.128;2023-06-19T12:48:41;32.50;83.10
21090;DHT22;10703;51.020;6.128;2023-06-19T12:51:08;33.00;82.20
21090;DHT22;10703;51.020;6.128;2023-06-19T12:53:35;33.60;82.40
21090;DHT22;10703;51.020;6.128;2023-06-19T12:56:01;33.00;83.90
21090;DHT22;10703;51.020;6.128;2023-06-19T12:58:36;33.60;81.10
21090;DHT22;10703;51.020;6.128;2023-06-19T13:01:02;33.90;79.80
21090;DHT22;10703;51.020;6.128;2023-06-19T13:03:29;33.90;78.80
21090;DHT22;10703;51.020;6.128;2023-06-19T13:05:56;33.80;82.10
21090;DHT22;10703;51.020;6.128;2023-06-19T13:08:24;33.30;80.30
21090;DHT22;10703;51.020;6.128;2023-06-19T13:10:50;33.70;81.90
21090;DHT22;10703;51.020;6.128;2023-06-19T13:13:17;34.50;79.30
21090;DHT22;10703;51.020;6.128;2023-06-19T13:15:44;33.90;81.00
21090;DHT22;10703;51.020;6.128;2023-06-19T13:18:12;34.00;79.80
21090;DHT22;10703;51.020;6.128;2023-06-19T13:20:38;34.80;79.50
21090;DHT22;10703;51.020;6.128;2023-06-19T13:23:05;34.10;79.60
21090;DHT22;10703;51.020;6.128;2023-06-19T13:25:33;32.80;80.30
21090;DHT22;10703;51.020;6.128;2023-06-19T13:27:59;33.30;80.80
21090;DHT22;10703;51.020;6.128;2023-06-19T13:30:26;34.10;81.30
21090;DHT22;10703;51.020;6.128;2023-06-19T13:32:53;34.20;79.40
21090;DHT22;10703;51.020;6.128;2023-06-19T13:35:20;34.70;78.30
21090;DHT22;10703;51.020;6.128;2023-06-19T13:37:48;34.30;79.20
21090;DHT22;10703;51.020;6.128;2023-06-19T13:40:14;35.50;79.60
21090;DHT22;10703;51.020;6.128;2023-06-19T13:42:41;35.90;78.40
21090;DHT22;10703;51.020;6.128;2023-06-19T13:45:08;34.90;75.40
21090;DHT22;10703;51.020;6.128;2023-06-19T13:47:35;35.20;79.80
21090;DHT22;10703;51.020;6.128;2023-06-19T13:50:02;35.50;75.40
21090;DHT22;10703;51.020;6.128;2023-06-19T13:52:30;35.80;78.10
21090;DHT22;10703;51.020;6.128;2023-06-19T13:54:57;35.00;76.60
21090;DHT22;10703;51.020;6.128;2023-06-19T13:57:23;35.80;72.90
21090;DHT22;10703;51.020;6.128;2023-06-19T13:59:50;36.20;74.00
21090;DHT22;10703;51.020;6.128;2023-06-19T14:02:17;35.80;75.40
21090;DHT22;10703;51.020;6.128;2023-06-19T14:04:43;35.90;73.70
21090;DHT22;10703;51.020;6.128;2023-06-19T14:07:10;36.30;73.60
21090;DHT22;10703;51.020;6.128;2023-06-19T14:09:38;37.20;72.90
21090;DHT22;10703;51.020;6.128;2023-06-19T14:12:05;37.20;72.10
21090;DHT22;10703;51.020;6.128;2023-06-19T14:14:32;37.70;73.30
21090;DHT22;10703;51.020;6.128;2023-06-19T14:16:59;37.10;73.30
21090;DHT22;10703;51.020;6.128;2023-06-19T14:19:26;36.30;73.90
21090;DHT22;10703;51.020;6.128;2023-06-19T14:21:55;36.20;73.40
21090;DHT22;10703;51.020;6.128;2023-06-19T14:24:22;36.40;72.60
21090;DHT22;10703;51.020;6.128;2023-06-19T14:26:51;36.70;75.20
21090;DHT22;10703;51.020;6.128;2023-06-19T14:29:17;37.00;70.90
21090;DHT22;10703;51.020;6.128;2023-06-19T14:31:45;37.10;70.70
21090;DHT22;10703;51.020;6.128;2023-06-19T14:34:12;37.30;69.80
21090;DHT22;10703;51.020;6.128;2023-06-19T14:36:38;37.10;70.60
21090;DHT22;10703;51.020;6.128;2023-06-19T14:39:05;37.40;69.80
21090;DHT22;10703;51.020;6.128;2023-06-19T14:41:32;38.30;70.00
21090;DHT22;10703;51.020;6.128;2023-06-19T14:43:58;37.00;71.00
21090;DHT22;10703;51.020;6.128;2023-06-19T14:46:25;36.30;71.30
21090;DHT22;10703;51.020;6.128;2023-06-19T14:48:59;35.90;70.20
21090;DHT22;10703;51.020;6.128;2023-06-19T14:51:27;36.80;70.20
21090;DHT22;10703;51.020;6.128;2023-06-19T14:53:54;37.70;70.30
21090;DHT22;10703;51.020;6.128;2023-06-19T14:56:21;37.20;71.70
21090;DHT22;10703;51.020;6.128;2023-06-19T14:58:47;37.60;69.90
21090;DHT22;10703;51.020;6.128;2023-06-19T15:01:16;37.30;69.40
21090;DHT22;10703;51.020;6.128;2023-06-19T15:03:43;37.50;68.50
21090;DHT22;10703;51.020;6.128;2023-06-19T15:06:10;37.10;69.80
21090;DHT22;10703;51.020;6.128;2023-06-19T15:08:37;37.90;67.80
21090;DHT22;10703;51.020;6.128;2023-06-19T15:11:05;37.70;68.00
21090;DHT22;10703;51.020;6.128;2023-06-19T15:13:33;36.80;70.70
21090;DHT22;10703;51.020;6.128;2023-06-19T15:15:59;37.30;70.00
21090;DHT22;10703;51.020;6.128;2023-06-19T15:18:26;37.10;69.30
21090;DHT22;10703;51.020;6.128;2023-06-19T15:20:53;37.80;68.50
21090;DHT22;10703;51.020;6.128;2023-06-19T15:23:20;37.30;69.60
21090;DHT22;10703;51.020;6.128;2023-06-19T15:25:46;37.50;68.70
21090;DHT22;10703;51.020;6.128;2023-06-19T15:28:15;37.70;68.40
21090;DHT22;10703;51.020;6.128;2023-06-19T15:30:42;38.00;68.60
21090;DHT22;10703;51.020;6.128;2023-06-19T15:33:09;37.80;69.80
21090;DHT22;10703;51.020;6.128;2023-06-19T15:35:35;37.60;68.30
21090;DHT22;10703;51.020;6.128;2023-06-19T15:38:02;36.60;67.70